createdAt,value
2023-03-27T00:00:23.130Z,22.37
2023-03-27T00:04:23.069Z,22.43
2023-03-27T00:08:23.071Z,22.44
2023-03-27T00:12:23.026Z,22.46
2023-03-27T00:16:23.012Z,22.45
2023-03-27T00:20:22.939Z,22.44
2023-03-27T00:24:22.884Z,22.45
2023-03-27T00:28:22.869Z,22.45
2023-03-27T00:32:22.805Z,22.45
2023-03-27T00:36:22.773Z,22.44
2023-03-27T00:40:22.727Z,22.44
2023-03-27T00:44:22.718Z,22.44
2023-03-27T00:48:22.649Z,22.44
2023-03-27T00:52:22.652Z,22.44
2023-03-27T00:56:22.673Z,22.43
2023-03-27T01:00:22.730Z,22.44
2023-03-27T01:04:22.718Z,22.44
2023-03-27T01:08:22.706Z,22.44
2023-03-27T01:12:22.714Z,22.43
2023-03-27T01:16:22.781Z,22.44
2023-03-27T01:20:22.734Z,22.44
2023-03-27T01:24:22.789Z,22.43
2023-03-27T01:28:22.832Z,22.42
2023-03-27T01:32:22.886Z,22.43
2023-03-27T01:36:22.916Z,22.42
2023-03-27T01:40:22.975Z,22.42
2023-03-27T01:44:23.023Z,22.43
2023-03-27T01:48:23.077Z,22.42
2023-03-27T01:52:23.071Z,22.43
2023-03-27T01:56:23.120Z,22.43
2023-03-27T02:00:23.237Z,22.42
2023-03-27T02:04:23.337Z,22.42
2023-03-27T02:08:23.328Z,22.41
2023-03-27T02:12:23.395Z,22.42
2023-03-27T02:16:23.508Z,22.42
2023-03-27T02:20:23.528Z,22.41
2023-03-27T02:24:23.588Z,22.41
2023-03-27T02:28:23.621Z,22.41
2023-03-27T02:32:23.814Z,22.41
2023-03-27T02:36:23.749Z,22.41
2023-03-27T02:40:23.820Z,22.41
2023-03-27T02:44:23.876Z,22.41
2023-03-27T02:48:23.925Z,22.41
2023-03-27T02:52:24.007Z,22.41
2023-03-27T02:56:24.094Z,22.40
2023-03-27T03:00:24.142Z,22.41
2023-03-27T03:04:24.193Z,22.40
2023-03-27T03:08:24.278Z,22.41
2023-03-27T03:12:24.295Z,22.40
2023-03-27T03:16:24.454Z,22.40
2023-03-27T03:20:24.438Z,22.40
2023-03-27T03:24:24.521Z,22.40
2023-03-27T03:28:24.573Z,22.40
2023-03-27T03:32:24.738Z,22.39
2023-03-27T03:36:24.725Z,22.39
2023-03-27T03:40:24.864Z,22.39
2023-03-27T03:44:24.881Z,22.39
2023-03-27T03:48:24.975Z,22.39
2023-03-27T03:52:25.044Z,22.39
2023-03-27T03:56:25.153Z,22.37
2023-03-27T04:00:25.188Z,22.38
2023-03-27T04:04:25.241Z,22.37
2023-03-27T04:08:25.308Z,22.36
2023-03-27T04:12:25.366Z,22.38
2023-03-27T04:16:25.426Z,22.38
2023-03-27T04:20:25.427Z,22.38
2023-03-27T04:24:25.480Z,22.37
2023-03-27T04:28:25.612Z,22.38
2023-03-27T04:32:25.677Z,22.37
2023-03-27T04:36:25.861Z,22.36
2023-03-27T04:40:25.724Z,22.37
2023-03-27T04:44:25.793Z,22.36
2023-03-27T04:48:25.841Z,22.37
2023-03-27T04:52:25.881Z,22.37
2023-03-27T04:56:25.960Z,22.37
2023-03-27T05:00:26.058Z,22.36
2023-03-27T05:04:26.082Z,22.36
2023-03-27T05:08:26.215Z,22.37
2023-03-27T05:12:26.193Z,22.37
2023-03-27T05:16:26.849Z,22.35
2023-03-27T05:20:26.732Z,22.36
2023-03-27T05:24:26.716Z,22.38
2023-03-27T05:28:26.716Z,22.40
2023-03-27T05:32:26.816Z,22.41
2023-03-27T05:36:26.651Z,22.43
2023-03-27T05:40:26.787Z,22.43
2023-03-27T05:44:26.722Z,22.45
2023-03-27T05:48:26.773Z,22.46
2023-03-27T05:52:28.789Z,22.46
2023-03-27T05:56:26.677Z,22.49
2023-03-27T06:00:29.964Z,22.50
2023-03-27T06:08:26.786Z,22.48
2023-03-27T06:12:26.479Z,22.45
2023-03-27T06:16:26.821Z,22.44
2023-03-27T06:20:26.404Z,22.43
2023-03-27T06:24:26.766Z,22.42
2023-03-27T06:28:26.341Z,22.41
2023-03-27T06:32:27.617Z,22.41
2023-03-27T06:36:27.907Z,22.40
2023-03-27T06:40:26.287Z,22.40
2023-03-27T06:44:26.250Z,22.40
2023-03-27T06:48:26.300Z,22.39
2023-03-27T06:52:26.256Z,22.39
2023-03-27T06:56:26.284Z,22.39
2023-03-27T07:00:26.371Z,22.38
2023-03-27T07:04:26.266Z,22.39
2023-03-27T07:08:26.304Z,22.38
2023-03-27T07:12:25.979Z,22.38
2023-03-27T07:16:26.281Z,22.38
2023-03-27T07:20:27.266Z,22.37
2023-03-27T07:24:26.265Z,22.38
2023-03-27T07:28:26.299Z,22.38
2023-03-27T07:32:36.667Z,22.37
2023-03-27T07:36:26.272Z,22.39
2023-03-27T07:40:36.917Z,22.51
2023-03-27T07:44:25.759Z,22.63
2023-03-27T07:48:25.774Z,22.58
2023-03-27T07:52:25.775Z,22.64
2023-03-27T07:56:26.774Z,22.72
2023-03-27T08:00:26.220Z,22.78
2023-03-27T08:04:26.267Z,22.81
2023-03-27T08:08:26.019Z,22.86
2023-03-27T08:12:25.796Z,22.88
2023-03-27T08:16:25.861Z,22.91
2023-03-27T08:20:25.790Z,22.94
2023-03-27T08:24:25.789Z,22.96
2023-03-27T08:28:25.523Z,22.98
2023-03-27T08:32:26.028Z,23.00
2023-03-27T08:36:25.822Z,23.01
2023-03-27T08:40:26.417Z,23.01
2023-03-27T08:44:26.144Z,23.00
2023-03-27T08:48:26.834Z,22.33
2023-03-27T08:52:26.820Z,21.17
2023-03-27T08:56:26.967Z,21.50
2023-03-27T09:00:26.965Z,21.97
2023-03-27T09:04:26.880Z,22.02
2023-03-27T09:08:27.308Z,22.31
2023-03-27T09:12:27.340Z,22.58
2023-03-27T09:16:28.730Z,22.76
2023-03-27T09:20:27.397Z,22.89
2023-03-27T09:24:27.321Z,22.98
2023-03-27T09:28:27.318Z,23.05
2023-03-27T09:32:27.396Z,23.07
2023-03-27T09:36:26.908Z,22.97
2023-03-27T09:40:27.331Z,22.99
2023-03-27T09:44:26.822Z,23.03
2023-03-27T09:48:26.825Z,23.09
2023-03-27T09:52:26.756Z,23.14
2023-03-27T09:56:26.698Z,23.19
2023-03-27T10:00:26.664Z,23.20
2023-03-27T10:04:26.832Z,23.24
2023-03-27T10:08:27.469Z,23.27
2023-03-27T10:12:26.839Z,23.29
2023-03-27T10:20:26.873Z,23.29
2023-03-27T10:24:26.662Z,23.27
2023-03-27T10:28:26.867Z,23.21
2023-03-27T10:32:26.865Z,23.15
2023-03-27T10:36:26.850Z,23.11
2023-03-27T10:40:26.514Z,23.08
2023-03-27T10:44:27.275Z,23.05
2023-03-27T10:48:26.860Z,23.02
2023-03-27T10:52:26.856Z,23.01
2023-03-27T10:56:26.882Z,22.99
2023-03-27T11:00:26.683Z,22.98
2023-03-27T11:04:26.862Z,22.96
2023-03-27T11:08:27.361Z,22.95
2023-03-27T11:12:27.396Z,22.95
2023-03-27T11:16:27.490Z,22.94
2023-03-27T11:20:27.869Z,22.92
2023-03-27T11:24:27.863Z,22.87
2023-03-27T11:28:27.893Z,22.86
2023-03-27T11:32:27.887Z,22.89
2023-03-27T11:36:27.691Z,22.91
2023-03-27T11:40:27.871Z,22.90
2023-03-27T11:44:27.907Z,22.90
2023-03-27T11:48:27.884Z,22.91
2023-03-27T11:52:27.882Z,22.92
2023-03-27T11:56:27.881Z,22.93
2023-03-27T12:00:28.416Z,22.93
2023-03-27T12:04:28.389Z,22.95
2023-03-27T12:08:28.892Z,22.94
2023-03-27T12:12:28.925Z,22.93
2023-03-27T12:16:29.166Z,22.91
2023-03-27T12:20:29.397Z,22.89
2023-03-27T12:24:28.963Z,22.88
2023-03-27T12:28:29.403Z,22.88
2023-03-27T12:32:29.024Z,22.87
2023-03-27T12:36:28.892Z,22.86
2023-03-27T12:40:29.119Z,22.86
2023-03-27T12:44:28.897Z,22.86
2023-03-27T12:48:29.475Z,22.85
2023-03-27T12:52:29.147Z,22.86
2023-03-27T12:56:29.434Z,22.85
2023-03-27T13:00:29.404Z,22.82
2023-03-27T13:04:29.432Z,22.80
2023-03-27T13:08:29.243Z,22.80
2023-03-27T13:12:29.423Z,22.78
2023-03-27T13:16:29.453Z,22.78
2023-03-27T13:20:29.441Z,22.79
2023-03-27T13:24:29.097Z,22.79
2023-03-27T13:28:29.420Z,22.80
2023-03-27T13:32:29.432Z,22.77
2023-03-27T13:36:29.450Z,22.77
2023-03-27T13:40:28.950Z,22.76
2023-03-27T13:44:28.928Z,22.74
2023-03-27T13:48:28.929Z,22.74
2023-03-27T13:52:28.863Z,22.75
2023-03-27T13:56:28.931Z,22.75
2023-03-27T14:00:28.937Z,22.74
2023-03-27T14:04:28.938Z,22.60
2023-03-27T14:08:28.968Z,20.93
2023-03-27T14:12:28.943Z,21.24
2023-03-27T14:16:28.841Z,21.62
2023-03-27T14:20:28.962Z,21.93
2023-03-27T14:24:28.985Z,22.13
2023-03-27T14:28:28.952Z,22.25
2023-03-27T14:32:28.640Z,22.34
2023-03-27T14:36:28.961Z,22.41
2023-03-27T14:40:28.976Z,22.47
2023-03-27T14:44:28.507Z,22.51
2023-03-27T14:48:28.957Z,22.54
2023-03-27T14:52:28.433Z,22.57
2023-03-27T14:56:28.417Z,22.58
2023-03-27T15:00:28.357Z,22.58
2023-03-27T15:04:28.461Z,22.59
2023-03-27T15:08:28.273Z,22.59
2023-03-27T15:12:28.493Z,22.59
2023-03-27T15:16:28.514Z,22.61
2023-03-27T15:20:28.973Z,22.60
2023-03-27T15:24:29.015Z,22.61
2023-03-27T15:28:28.762Z,22.62
2023-03-27T15:32:28.816Z,22.62
2023-03-27T15:36:28.938Z,22.61
2023-03-27T15:40:29.082Z,22.61
2023-03-27T15:44:29.256Z,22.61
2023-03-27T15:48:29.276Z,22.61
2023-03-27T15:52:29.345Z,22.61
2023-03-27T15:56:29.405Z,22.58
2023-03-27T16:00:29.465Z,22.59
2023-03-27T16:04:29.538Z,22.59
2023-03-27T16:08:29.646Z,22.58
2023-03-27T16:12:29.904Z,22.59
2023-03-27T16:16:29.774Z,22.58
2023-03-27T16:20:29.726Z,22.58
2023-03-27T16:24:29.993Z,22.58
2023-03-27T16:28:29.864Z,22.57
2023-03-27T16:32:29.955Z,22.57
2023-03-27T16:36:29.875Z,22.57
2023-03-27T16:40:29.881Z,22.56
2023-03-27T16:44:29.882Z,22.57
2023-03-27T16:48:29.952Z,22.57
2023-03-27T16:52:29.930Z,22.57
2023-03-27T16:56:29.944Z,22.57
2023-03-27T17:00:30.013Z,22.56
2023-03-27T17:04:30.121Z,22.56
2023-03-27T17:08:30.137Z,22.56
2023-03-27T17:12:30.234Z,22.55
2023-03-27T17:16:30.312Z,22.56
2023-03-27T17:20:30.349Z,22.55
2023-03-27T17:24:30.417Z,22.55
2023-03-27T17:28:30.507Z,22.55
2023-03-27T17:32:30.603Z,22.55
2023-03-27T17:36:40.127Z,22.55
2023-03-27T17:40:30.565Z,22.54
2023-03-27T17:44:30.503Z,22.54
2023-03-27T17:48:30.466Z,22.53
2023-03-27T17:52:30.464Z,22.54
2023-03-27T17:56:30.397Z,22.53
2023-03-27T18:00:30.344Z,22.53
2023-03-27T18:04:30.296Z,22.53
2023-03-27T18:08:30.287Z,22.53
2023-03-27T18:12:30.223Z,22.53
2023-03-27T18:16:30.222Z,22.53
2023-03-27T18:20:30.157Z,22.52
2023-03-27T18:24:30.291Z,22.52
2023-03-27T18:28:30.073Z,22.51
2023-03-27T18:32:30.105Z,22.50
2023-03-27T18:36:29.990Z,22.50
2023-03-27T18:40:29.975Z,22.51
2023-03-27T18:44:29.915Z,22.50
2023-03-27T18:48:29.893Z,22.50
2023-03-27T18:52:29.834Z,22.50
2023-03-27T18:56:29.820Z,22.50
2023-03-27T19:00:29.770Z,22.49
2023-03-27T19:04:29.723Z,22.50
2023-03-27T19:08:29.704Z,22.49
2023-03-27T19:12:29.788Z,22.48
2023-03-27T19:16:29.637Z,22.49
2023-03-27T19:20:29.563Z,22.48
2023-03-27T19:24:29.530Z,22.48
2023-03-27T19:28:29.522Z,22.47
2023-03-27T19:32:29.465Z,22.48
2023-03-27T19:36:29.425Z,22.46
2023-03-27T19:40:29.408Z,22.47
2023-03-27T19:44:29.367Z,22.46
2023-03-27T19:48:29.390Z,22.47
2023-03-27T19:52:29.336Z,22.47
2023-03-27T19:56:29.387Z,22.47
2023-03-27T20:00:31.393Z,22.46
2023-03-27T20:04:29.184Z,22.46
2023-03-27T20:08:29.109Z,22.45
2023-03-27T20:12:30.662Z,22.45
2023-03-27T20:16:29.091Z,22.46
2023-03-27T20:20:28.990Z,22.46
2023-03-27T20:24:29.078Z,22.46
2023-03-27T20:28:28.916Z,22.46
2023-03-27T20:32:28.959Z,22.45
2023-03-27T20:36:28.838Z,22.46
2023-03-27T20:40:32.897Z,22.46
2023-03-27T20:44:28.765Z,22.46
2023-03-27T20:48:28.753Z,22.45
2023-03-27T20:52:28.685Z,22.45
2023-03-27T20:56:28.649Z,22.44
2023-03-27T21:00:28.609Z,22.44
2023-03-27T21:04:28.596Z,22.44
2023-03-27T21:08:28.564Z,22.44
2023-03-27T21:12:28.495Z,22.44
2023-03-27T21:16:28.512Z,22.44
2023-03-27T21:20:28.449Z,22.43
2023-03-27T21:24:28.384Z,22.44
2023-03-27T21:28:28.343Z,22.44
2023-03-27T21:32:28.314Z,22.43
2023-03-27T21:36:29.874Z,22.43
2023-03-27T21:40:28.230Z,22.43
2023-03-27T21:44:28.630Z,22.42
2023-03-27T21:48:28.208Z,22.42
2023-03-27T21:52:28.150Z,22.43
2023-03-27T21:56:28.085Z,22.42
2023-03-27T22:00:28.056Z,22.43
2023-03-27T22:04:28.030Z,22.43
2023-03-27T22:08:28.006Z,22.42
2023-03-27T22:12:27.937Z,22.42
2023-03-27T22:16:27.998Z,22.41
2023-03-27T22:20:27.856Z,22.42
2023-03-27T22:24:27.846Z,22.43
2023-03-27T22:28:27.783Z,22.42
2023-03-27T22:32:27.788Z,22.41
2023-03-27T22:36:27.712Z,22.40
2023-03-27T22:40:27.694Z,22.40
2023-03-27T22:44:27.625Z,22.41
2023-03-27T22:48:27.591Z,22.40
2023-03-27T22:52:27.554Z,22.39
2023-03-27T22:56:27.561Z,22.40
2023-03-27T23:00:27.493Z,22.39
2023-03-27T23:56:23.311Z,21.95
